createdAt,value
2016-10-17T00:00:11.746Z,26.31
2016-10-17T00:01:22.276Z,26.35
2016-10-17T00:02:32.925Z,26.37
2016-10-17T00:03:43.463Z,26.32
2016-10-17T00:04:54.047Z,26.31
2016-10-17T00:06:04.610Z,26.29
2016-10-17T00:07:15.127Z,26.27
2016-10-17T00:08:57.717Z,26.25
2016-10-17T00:10:08.251Z,26.25
2016-10-17T00:11:18.737Z,26.15
2016-10-17T00:12:29.263Z,26.18
2016-10-17T00:13:39.807Z,26.09
2016-10-17T00:14:50.367Z,26.15
2016-10-17T00:16:00.890Z,26.21
2016-10-17T00:17:11.461Z,26.09
2016-10-17T00:18:22.049Z,26.02
2016-10-17T00:19:32.716Z,26.08
2016-10-17T00:20:43.298Z,26.04
2016-10-17T00:21:53.891Z,26.17
2016-10-17T00:23:04.431Z,26.02
2016-10-17T00:24:15.002Z,26.05
2016-10-17T00:25:26.116Z,26.21
2016-10-17T00:26:36.692Z,26.22
2016-10-17T00:27:47.208Z,26.32
2016-10-17T00:28:57.754Z,26.31
2016-10-17T00:30:08.279Z,26.37
2016-10-17T00:31:19.253Z,26.42
2016-10-17T00:32:30.278Z,26.4
2016-10-17T00:33:40.859Z,26.42
2016-10-17T00:34:51.425Z,26.5
2016-10-17T00:36:01.980Z,26.5
2016-10-17T00:37:12.715Z,26.58
2016-10-17T00:38:23.224Z,26.59
2016-10-17T00:39:34.288Z,26.59
2016-10-17T00:40:44.785Z,26.61
2016-10-17T00:41:55.352Z,26.58
2016-10-17T00:43:06.030Z,26.55
2016-10-17T00:44:16.562Z,26.52
2016-10-17T00:45:27.083Z,26.47
2016-10-17T00:46:37.761Z,26.52
2016-10-17T00:47:48.487Z,26.42
2016-10-17T00:48:59.466Z,26.43
2016-10-17T00:50:10.299Z,26.36
2016-10-17T00:51:21.141Z,26.43
2016-10-17T00:52:31.953Z,26.42
2016-10-17T00:53:43.106Z,26.46
2016-10-17T00:54:54.466Z,26.36
2016-10-17T00:56:05.323Z,26.39
2016-10-17T00:57:16.299Z,26.32
2016-10-17T00:58:27.449Z,26.25
2016-10-17T00:59:38.620Z,26.24
2016-10-17T01:00:49.557Z,26.17
2016-10-17T01:02:00.276Z,26.21
2016-10-17T01:03:11.020Z,26.22
2016-10-17T01:04:21.830Z,26.01
2016-10-17T01:05:32.442Z,25.97
2016-10-17T01:06:43.201Z,25.93
2016-10-17T01:07:53.927Z,25.87
2016-10-17T01:09:04.630Z,25.79
2016-10-17T01:10:15.428Z,25.74
2016-10-17T01:11:26.116Z,25.75
2016-10-17T01:12:36.830Z,25.74
2016-10-17T01:13:47.503Z,25.77
2016-10-17T01:14:58.175Z,25.84
2016-10-17T01:16:09.218Z,25.83
2016-10-17T01:17:19.969Z,25.87
2016-10-17T01:18:30.613Z,25.86
2016-10-17T01:19:41.163Z,25.84
2016-10-17T01:20:51.735Z,25.84
2016-10-17T01:22:02.353Z,25.91
2016-10-17T01:23:13.067Z,25.84
2016-10-17T01:24:23.816Z,25.9
2016-10-17T01:25:34.984Z,25.84
2016-10-17T01:26:45.656Z,25.89
2016-10-17T01:27:56.252Z,25.9
2016-10-17T01:29:06.849Z,25.87
2016-10-17T01:30:17.503Z,25.87
2016-10-17T01:31:28.468Z,25.84
2016-10-17T01:32:39.166Z,25.79
2016-10-17T01:33:49.748Z,25.84
2016-10-17T01:35:00.331Z,25.8
2016-10-17T01:37:53.708Z,25.75
2016-10-17T01:39:04.282Z,25.77
2016-10-17T01:40:14.868Z,25.75
2016-10-17T01:41:25.546Z,25.75
2016-10-17T01:42:36.499Z,25.67
2016-10-17T01:43:47.413Z,25.62
2016-10-17T01:44:57.993Z,25.59
2016-10-17T01:46:08.546Z,25.5
2016-10-17T01:47:19.223Z,25.5
2016-10-17T01:48:29.793Z,25.39
2016-10-17T01:49:40.380Z,25.39
2016-10-17T01:50:50.944Z,25.37
2016-10-17T01:52:01.500Z,25.42
2016-10-17T01:53:12.366Z,25.39
2016-10-17T01:54:22.897Z,25.35
2016-10-17T01:55:33.871Z,25.34
2016-10-17T01:56:44.440Z,25.34
2016-10-17T01:57:55.015Z,25.3
2016-10-17T01:59:05.673Z,25.32
2016-10-17T02:00:16.255Z,25.31
2016-10-17T02:01:27.240Z,25.25
2016-10-17T02:02:37.790Z,25.2
2016-10-17T02:03:48.460Z,25.27
2016-10-17T02:04:59.210Z,25.2
2016-10-17T02:06:09.849Z,25.2
2016-10-17T02:07:20.437Z,25.25
2016-10-17T02:08:31.148Z,25.31
2016-10-17T02:09:41.774Z,25.32
2016-10-17T02:10:52.491Z,25.28
2016-10-17T02:12:03.121Z,25.28
2016-10-17T02:13:14.257Z,25.25
2016-10-17T02:14:24.916Z,25.2
2016-10-17T02:15:35.661Z,25.17
2016-10-17T02:16:46.332Z,25.2
2016-10-17T02:17:56.980Z,25.19
2016-10-17T02:19:07.653Z,25.12
2016-10-17T02:20:18.204Z,25.1
2016-10-17T02:21:28.755Z,25.12
2016-10-17T02:22:39.354Z,25.16
2016-10-17T02:23:49.958Z,25.15
2016-10-17T02:25:00.695Z,25.16
2016-10-17T02:26:11.415Z,25.09
2016-10-17T02:27:21.991Z,25.09
2016-10-17T02:28:32.712Z,25.05
2016-10-17T02:29:43.294Z,24.95
2016-10-17T02:30:53.917Z,25.06
2016-10-17T02:32:04.668Z,24.98
2016-10-17T02:33:15.465Z,24.98
2016-10-17T02:34:26.252Z,24.98
2016-10-17T02:35:36.855Z,24.92
2016-10-17T02:36:47.471Z,24.91
2016-10-17T02:37:58.195Z,24.91
2016-10-17T02:39:08.893Z,24.97
2016-10-17T02:40:19.667Z,24.87
2016-10-17T02:41:30.246Z,24.91
2016-10-17T02:42:40.778Z,24.91
2016-10-17T02:43:51.320Z,24.98
2016-10-17T02:45:01.854Z,24.88
2016-10-17T02:46:12.529Z,24.92
2016-10-17T02:47:23.125Z,24.94
2016-10-17T02:48:33.650Z,24.9
2016-10-17T02:49:44.221Z,24.92
2016-10-17T02:50:54.756Z,24.95
2016-10-17T02:52:05.387Z,24.79
2016-10-17T02:53:15.926Z,24.85
2016-10-17T02:54:26.436Z,24.77
2016-10-17T02:55:37.494Z,24.79
2016-10-17T02:56:47.994Z,24.77
2016-10-17T02:57:58.663Z,24.83
2016-10-17T02:59:09.244Z,24.82
2016-10-17T03:00:19.802Z,24.76
2016-10-17T03:01:30.335Z,24.61
2016-10-17T03:02:40.820Z,24.64
2016-10-17T03:03:51.407Z,24.64
2016-10-17T03:05:01.909Z,24.57
2016-10-17T03:06:12.383Z,24.61
2016-10-17T03:07:22.892Z,24.59
2016-10-17T03:08:33.881Z,24.54
2016-10-17T03:09:44.460Z,24.54
2016-10-17T03:10:55.000Z,24.38
2016-10-17T03:12:05.536Z,24.45
2016-10-17T03:13:16.026Z,24.38
2016-10-17T03:14:26.579Z,24.39
2016-10-17T03:15:37.206Z,24.27
2016-10-17T03:16:47.694Z,24.31
2016-10-17T03:17:58.190Z,24.29
2016-10-17T03:19:12.241Z,24.27
2016-10-17T03:20:22.754Z,24.26
2016-10-17T03:21:33.362Z,24.23
2016-10-17T03:22:43.868Z,24.16
2016-10-17T03:23:54.384Z,24.17
2016-10-17T03:25:04.873Z,24.2
2016-10-17T03:26:15.392Z,24.22
2016-10-17T03:27:26.008Z,24.22
2016-10-17T03:28:36.539Z,24.13
2016-10-17T03:29:47.087Z,24.13
2016-10-17T03:30:57.544Z,24.13
2016-10-17T03:32:08.048Z,24.1
2016-10-17T03:33:19.120Z,24.01
2016-10-17T03:34:29.656Z,24.02
2016-10-17T03:35:40.145Z,24.02
2016-10-17T03:36:50.617Z,24.13
2016-10-17T03:38:01.596Z,24.16
2016-10-17T03:39:12.098Z,24.04
2016-10-17T03:40:23.081Z,24.1
2016-10-17T03:41:33.592Z,24.08
2016-10-17T03:42:44.074Z,24.1
2016-10-17T03:43:55.051Z,24.01
2016-10-17T03:45:05.655Z,24
2016-10-17T03:46:16.201Z,24
2016-10-17T03:47:26.673Z,24
2016-10-17T03:48:37.201Z,24.01
2016-10-17T03:49:47.758Z,23.97
2016-10-17T03:50:58.323Z,23.82
2016-10-17T03:52:08.839Z,23.85
2016-10-17T03:53:19.359Z,23.86
2016-10-17T03:54:29.866Z,23.79
2016-10-17T03:55:40.350Z,23.85
2016-10-17T03:56:50.869Z,23.79
2016-10-17T03:58:01.388Z,23.8
2016-10-17T03:59:11.881Z,23.65
2016-10-17T04:00:22.458Z,23.67
2016-10-17T04:01:32.929Z,23.77
2016-10-17T04:02:43.586Z,23.75
2016-10-17T04:03:54.085Z,23.68
2016-10-17T04:05:05.091Z,23.7
2016-10-17T04:06:15.594Z,23.72
2016-10-17T04:07:26.065Z,23.71
2016-10-17T04:08:37.221Z,23.7
2016-10-17T04:09:47.754Z,23.62
2016-10-17T04:10:58.290Z,23.8
2016-10-17T04:12:08.767Z,23.82
2016-10-17T04:13:19.272Z,23.86
2016-10-17T04:14:29.746Z,23.9
2016-10-17T04:15:40.269Z,23.98
2016-10-17T04:16:50.762Z,24.02
2016-10-17T04:18:01.770Z,24
2016-10-17T04:19:12.271Z,23.85
2016-10-17T04:20:22.812Z,23.86
2016-10-17T04:21:33.325Z,23.87
2016-10-17T04:22:43.810Z,23.87
2016-10-17T04:23:54.325Z,23.9
2016-10-17T04:25:04.806Z,23.89
2016-10-17T04:26:15.473Z,23.92
2016-10-17T04:27:25.986Z,23.9
2016-10-17T04:28:36.495Z,23.97
2016-10-17T04:29:46.990Z,23.94
2016-10-17T04:30:57.473Z,24
2016-10-17T04:32:08.026Z,23.98
2016-10-17T04:33:19.057Z,24
2016-10-17T04:34:29.585Z,23.95
2016-10-17T04:35:40.080Z,23.9
2016-10-17T04:36:50.548Z,23.9
2016-10-17T04:38:01.137Z,23.83
2016-10-17T04:39:11.615Z,23.85
2016-10-17T04:40:22.606Z,23.76
2016-10-17T04:41:33.123Z,23.77
2016-10-17T04:42:43.638Z,23.72
2016-10-17T04:43:54.619Z,23.72
2016-10-17T04:45:05.572Z,23.71
2016-10-17T04:46:16.094Z,23.67
2016-10-17T04:47:26.588Z,23.68
2016-10-17T04:48:37.067Z,23.65
2016-10-17T04:49:47.682Z,23.61
2016-10-17T04:50:58.643Z,23.64
2016-10-17T04:52:09.114Z,23.67
2016-10-17T04:53:19.664Z,23.61
2016-10-17T04:54:30.172Z,23.65
2016-10-17T04:55:40.777Z,23.65
2016-10-17T04:56:51.262Z,23.67
2016-10-17T04:58:01.789Z,23.6
2016-10-17T04:59:12.790Z,23.53
2016-10-17T05:00:23.308Z,23.57
2016-10-17T05:01:33.930Z,23.55
2016-10-17T05:02:44.427Z,23.55
2016-10-17T05:03:54.974Z,23.49
2016-10-17T05:05:05.512Z,23.46
2016-10-17T05:06:16.012Z,23.5
2016-10-17T05:07:26.621Z,23.35
2016-10-17T05:08:37.116Z,23.45
2016-10-17T05:09:47.574Z,23.38
2016-10-17T05:10:58.052Z,23.43
2016-10-17T05:12:08.538Z,23.49
2016-10-17T05:13:19.141Z,23.47
2016-10-17T05:14:29.635Z,23.55
2016-10-17T05:15:40.173Z,23.61
2016-10-17T05:16:50.632Z,23.68
2016-10-17T05:18:01.634Z,23.68
2016-10-17T05:19:12.192Z,23.65
2016-10-17T05:20:22.679Z,23.72
2016-10-17T05:21:33.232Z,23.75
2016-10-17T05:22:43.762Z,23.76
2016-10-17T05:23:54.282Z,23.82
2016-10-17T05:25:04.929Z,23.8
2016-10-17T05:26:15.483Z,23.8
2016-10-17T05:27:26.000Z,23.85
2016-10-17T05:28:36.532Z,23.86
2016-10-17T05:29:47.035Z,23.8
2016-10-17T05:30:57.634Z,23.83
2016-10-17T05:32:08.156Z,23.77
2016-10-17T05:33:18.720Z,23.6
2016-10-17T05:34:29.245Z,23.47
2016-10-17T05:35:39.798Z,23.34
2016-10-17T05:36:50.441Z,23.24
2016-10-17T05:38:00.987Z,23.05
2016-10-17T05:39:11.520Z,23.02
2016-10-17T05:40:22.061Z,22.89
2016-10-17T05:41:32.636Z,22.89
2016-10-17T05:42:43.184Z,22.89
2016-10-17T05:43:53.725Z,22.92
2016-10-17T05:45:04.285Z,22.9
2016-10-17T05:46:14.825Z,22.83
2016-10-17T05:47:25.330Z,22.77
2016-10-17T05:48:35.938Z,22.65
2016-10-17T05:49:46.467Z,22.69
2016-10-17T05:50:57.037Z,22.62
2016-10-17T05:52:07.563Z,22.68
2016-10-17T05:53:18.067Z,22.64
2016-10-17T05:54:28.715Z,22.52
2016-10-17T05:55:39.781Z,22.43
2016-10-17T05:56:50.300Z,22.47
2016-10-17T05:58:00.838Z,22.37
2016-10-17T05:59:11.322Z,22.41
2016-10-17T06:00:21.932Z,22.38
2016-10-17T06:01:32.449Z,22.31
2016-10-17T06:02:43.019Z,22.39
2016-10-17T06:03:53.565Z,22.31
2016-10-17T06:05:04.558Z,22.37
2016-10-17T06:06:15.115Z,22.23
2016-10-17T06:07:25.663Z,22.19
2016-10-17T06:08:36.190Z,22.17
2016-10-17T06:09:46.692Z,22.1
2016-10-17T06:10:57.285Z,22.1
2016-10-17T06:12:07.895Z,21.94
2016-10-17T06:13:18.428Z,21.88
2016-10-17T06:14:28.951Z,21.82
2016-10-17T06:15:39.483Z,21.78
2016-10-17T06:16:50.053Z,21.72
2016-10-17T06:18:00.693Z,21.66
2016-10-17T06:19:11.247Z,21.72
2016-10-17T06:20:22.277Z,21.59
2016-10-17T06:21:32.826Z,21.54
2016-10-17T06:22:43.395Z,21.48
2016-10-17T06:23:53.940Z,21.41
2016-10-17T06:25:04.487Z,21.39
2016-10-17T06:26:15.018Z,21.41
2016-10-17T06:27:25.521Z,21.41
2016-10-17T06:28:36.069Z,21.35
2016-10-17T06:29:46.733Z,21.39
2016-10-17T06:30:57.254Z,21.34
2016-10-17T06:32:07.764Z,21.39
2016-10-17T06:33:18.299Z,21.36
2016-10-17T06:34:28.825Z,21.35
2016-10-17T06:35:39.497Z,21.32
2016-10-17T06:36:49.985Z,21.35
2016-10-17T06:38:00.555Z,21.32
2016-10-17T06:39:11.094Z,21.3
2016-10-17T06:40:21.605Z,21.23
2016-10-17T06:41:32.279Z,21.11
2016-10-17T06:42:42.853Z,21.11
2016-10-17T06:43:53.384Z,21.05
2016-10-17T06:45:03.949Z,21.05
2016-10-17T06:46:14.518Z,21.06
2016-10-17T06:47:25.025Z,21.06
2016-10-17T06:48:35.609Z,21.06
2016-10-17T06:49:46.139Z,21.06
2016-10-17T06:50:56.688Z,21.02
2016-10-17T06:52:07.215Z,20.98
2016-10-17T06:53:17.836Z,21.06
2016-10-17T06:54:28.418Z,21.14
2016-10-17T06:55:38.939Z,21.14
2016-10-17T06:56:49.505Z,21.06
2016-10-17T06:58:00.096Z,21.09
2016-10-17T06:59:10.806Z,21.06
2016-10-17T07:00:21.382Z,21.06
2016-10-17T07:01:31.951Z,21.04
2016-10-17T07:02:42.514Z,20.99
2016-10-17T07:03:53.097Z,20.96
2016-10-17T07:05:03.763Z,20.9
2016-10-17T07:06:14.325Z,20.93
2016-10-17T07:07:24.904Z,20.81
2016-10-17T07:08:35.475Z,20.79
2016-10-17T07:09:46.052Z,20.84
2016-10-17T07:10:56.632Z,20.79
2016-10-17T07:12:07.210Z,20.84
2016-10-17T07:13:17.784Z,20.87
2016-10-17T07:14:28.378Z,20.8
2016-10-17T07:15:38.958Z,20.81
2016-10-17T07:16:49.630Z,20.84
2016-10-17T07:18:00.196Z,20.76
2016-10-17T07:19:10.764Z,20.76
2016-10-17T07:20:21.822Z,20.71
2016-10-17T07:21:32.419Z,20.76
2016-10-17T07:22:43.091Z,20.68
2016-10-17T07:23:53.659Z,20.56
2016-10-17T07:25:04.228Z,20.53
2016-10-17T07:26:14.803Z,20.54
2016-10-17T07:27:25.372Z,20.64
2016-10-17T07:28:36.084Z,20.56
2016-10-17T07:29:46.632Z,20.53
2016-10-17T07:30:57.157Z,20.56
2016-10-17T07:32:07.716Z,20.58
2016-10-17T07:33:18.280Z,20.59
2016-10-17T07:34:29.329Z,20.53
2016-10-17T07:35:39.812Z,20.56
2016-10-17T07:36:50.352Z,20.51
2016-10-17T07:38:00.877Z,20.53
2016-10-17T07:39:11.429Z,20.66
2016-10-17T07:40:22.816Z,20.53
2016-10-17T07:41:33.375Z,20.54
2016-10-17T07:42:43.896Z,20.66
2016-10-17T07:43:54.430Z,20.64
2016-10-17T07:45:04.971Z,20.64
2016-10-17T07:46:15.567Z,20.56
2016-10-17T07:47:26.609Z,20.64
2016-10-17T07:48:37.166Z,20.62
2016-10-17T07:49:47.736Z,20.56
2016-10-17T07:50:58.744Z,20.5
2016-10-17T07:52:09.271Z,20.53
2016-10-17T07:53:19.795Z,20.53
2016-10-17T07:54:30.377Z,20.51
2016-10-17T07:55:40.923Z,20.58
2016-10-17T07:56:51.459Z,20.46
2016-10-17T07:58:02.110Z,20.43
2016-10-17T07:59:12.685Z,20.49
2016-10-17T08:00:23.165Z,20.58
2016-10-17T08:01:33.675Z,20.53
2016-10-17T08:02:44.221Z,20.61
2016-10-17T08:03:54.859Z,20.54
2016-10-17T08:05:05.420Z,20.51
2016-10-17T08:06:15.956Z,20.53
2016-10-17T08:07:26.451Z,20.53
2016-10-17T08:08:37.001Z,20.54
2016-10-17T08:09:47.659Z,20.61
2016-10-17T08:10:58.226Z,20.61
2016-10-17T08:12:08.772Z,20.53
2016-10-17T08:13:19.287Z,20.53
2016-10-17T08:14:29.821Z,20.66
2016-10-17T08:15:40.337Z,20.53
2016-10-17T08:16:50.858Z,20.54
2016-10-17T08:18:01.397Z,20.53
2016-10-17T08:19:11.936Z,20.62
2016-10-17T08:20:22.527Z,20.66
2016-10-17T08:21:33.194Z,20.66
2016-10-17T08:22:43.756Z,20.62
2016-10-17T08:23:54.330Z,20.59
2016-10-17T08:25:04.873Z,20.68
2016-10-17T08:26:15.412Z,20.66
2016-10-17T08:27:26.064Z,20.69
2016-10-17T08:28:36.582Z,20.69
2016-10-17T08:29:47.128Z,20.71
2016-10-17T08:30:57.667Z,20.66
2016-10-17T08:32:08.187Z,20.72
2016-10-17T08:33:18.847Z,20.8
2016-10-17T08:34:29.376Z,20.81
2016-10-17T08:35:39.939Z,20.8
2016-10-17T08:36:50.459Z,20.93
2016-10-17T08:38:01.014Z,20.93
2016-10-17T08:39:11.544Z,20.91
2016-10-17T08:40:22.104Z,20.9
2016-10-17T08:41:32.663Z,21.02
2016-10-17T08:42:43.216Z,21.02
2016-10-17T08:43:53.708Z,21.05
2016-10-17T08:45:04.329Z,21.01
2016-10-17T08:46:14.774Z,21.06
2016-10-17T08:47:25.331Z,21.06
2016-10-17T08:48:35.879Z,21.04
2016-10-17T08:49:46.445Z,21.05
2016-10-17T08:50:57.093Z,21.14
2016-10-17T08:52:07.599Z,21.13
2016-10-17T08:53:18.151Z,21.09
2016-10-17T08:54:28.689Z,21.06
2016-10-17T08:55:39.267Z,21.06
2016-10-17T08:56:49.912Z,21.09
2016-10-17T08:58:00.447Z,21.17
2016-10-17T08:59:10.964Z,21.19
2016-10-17T09:00:21.538Z,21.16
2016-10-17T09:01:32.047Z,21.16
2016-10-17T09:02:42.673Z,21.2
2016-10-17T09:03:53.197Z,21.16
2016-10-17T09:05:03.760Z,21.21
2016-10-17T09:07:05.246Z,21.24
2016-10-17T09:08:15.924Z,21.24
2016-10-17T09:09:26.589Z,21.34
2016-10-17T09:10:37.123Z,21.24
2016-10-17T09:11:47.712Z,21.34
2016-10-17T09:12:58.199Z,21.35
2016-10-17T09:14:08.833Z,21.35
2016-10-17T09:15:19.329Z,21.36
2016-10-17T09:16:29.840Z,21.46
2016-10-17T09:17:40.417Z,21.41
2016-10-17T09:18:50.905Z,21.53
2016-10-17T09:20:01.543Z,21.57
2016-10-17T09:21:12.076Z,21.66
2016-10-17T09:22:22.627Z,21.56
2016-10-17T09:23:33.306Z,21.6
2016-10-17T09:24:43.820Z,21.59
2016-10-17T09:25:54.442Z,21.61
2016-10-17T09:27:04.964Z,21.61
2016-10-17T09:28:15.503Z,21.53
2016-10-17T09:29:26.550Z,21.6
2016-10-17T09:30:37.082Z,21.56
2016-10-17T09:31:47.614Z,21.56
2016-10-17T09:32:58.137Z,21.66
2016-10-17T09:34:08.687Z,21.67
2016-10-17T09:35:19.264Z,21.61
2016-10-17T09:36:29.768Z,21.74
2016-10-17T09:37:40.415Z,21.78
2016-10-17T09:38:50.927Z,21.83
2016-10-17T09:40:01.471Z,21.88
2016-10-17T09:41:11.989Z,21.91
2016-10-17T09:42:22.503Z,21.94
2016-10-17T09:43:33.109Z,21.94
2016-10-17T09:44:43.677Z,22.04
2016-10-17T09:45:54.193Z,22.1
2016-10-17T09:47:04.718Z,22.16
2016-10-17T09:48:15.208Z,22.23
2016-10-17T09:49:25.765Z,22.2
2016-10-17T09:50:36.227Z,22.38
2016-10-17T09:51:46.752Z,22.57
2016-10-17T09:52:57.202Z,22.52
2016-10-17T09:54:08.172Z,22.62
2016-10-17T09:55:19.328Z,22.84
2016-10-17T09:56:29.792Z,22.83
2016-10-17T09:57:40.305Z,22.92
2016-10-17T09:58:50.833Z,22.94
2016-10-17T10:00:01.314Z,23.19
2016-10-17T10:01:11.893Z,23.15
2016-10-17T10:02:22.403Z,23.7
2016-10-17T10:03:32.872Z,23.27
2016-10-17T10:04:43.351Z,22.97
2016-10-17T10:05:53.868Z,22.92
2016-10-17T10:07:04.443Z,22.99
2016-10-17T10:08:14.937Z,23.12
2016-10-17T10:09:25.463Z,23.23
2016-10-17T10:10:35.954Z,23.72
2016-10-17T10:11:46.495Z,23.79
2016-10-17T10:12:57.019Z,24.31
2016-10-17T10:14:07.526Z,24.63
2016-10-17T10:15:17.973Z,24.24
2016-10-17T10:16:28.511Z,24.04
2016-10-17T10:17:39.099Z,23.82
2016-10-17T10:18:49.739Z,23.57
2016-10-17T10:20:00.309Z,23.35
2016-10-17T10:21:10.883Z,23.27
2016-10-17T10:22:21.461Z,23.24
2016-10-17T10:23:32.045Z,23.45
2016-10-17T10:24:42.719Z,23.43
2016-10-17T10:25:53.332Z,23.42
2016-10-17T10:27:03.918Z,23.53
2016-10-17T10:28:14.490Z,23.86
2016-10-17T10:29:25.070Z,23.95
2016-10-17T10:30:35.749Z,24.05
2016-10-17T10:31:46.325Z,23.8
2016-10-17T10:32:56.908Z,23.83
2016-10-17T10:34:07.512Z,23.71
2016-10-17T10:35:18.100Z,23.97
2016-10-17T10:36:28.684Z,24.14
2016-10-17T10:37:39.297Z,24.59
2016-10-17T10:38:49.912Z,25.02
2016-10-17T10:40:00.498Z,25.56
2016-10-17T10:41:11.563Z,26.04
2016-10-17T10:42:22.238Z,26.04
2016-10-17T10:43:32.849Z,26.65
2016-10-17T10:44:43.428Z,27.46
2016-10-17T10:45:54.009Z,28.07
2016-10-17T10:47:04.579Z,28.17
2016-10-17T10:48:15.256Z,28.65
2016-10-17T10:49:25.842Z,28.93
2016-10-17T10:50:36.424Z,29.01
2016-10-17T10:51:46.996Z,29.06
2016-10-17T10:52:57.540Z,29.52
2016-10-17T10:54:08.118Z,29.72
2016-10-17T10:55:18.618Z,29.93
2016-10-17T10:56:29.176Z,29.68
2016-10-17T10:57:39.655Z,29.4
2016-10-17T10:58:50.123Z,29.52
2016-10-17T11:00:01.216Z,29.66
2016-10-17T11:01:12.169Z,29.6
2016-10-17T11:02:22.687Z,29.25
2016-10-17T11:03:33.202Z,29.15
2016-10-17T11:04:43.665Z,29.23
2016-10-17T11:05:54.293Z,29.23
2016-10-17T11:07:04.787Z,29.6
2016-10-17T11:08:15.289Z,29.84
2016-10-17T11:09:25.775Z,29.53
2016-10-17T11:10:36.308Z,29.11
2016-10-17T11:11:46.905Z,29.11
2016-10-17T11:12:57.448Z,29.38
2016-10-17T11:14:07.958Z,29.35
2016-10-17T11:15:18.983Z,29.29
2016-10-17T11:16:29.509Z,29.66
2016-10-17T11:17:40.185Z,30.27
2016-10-17T11:18:50.770Z,30.81
2016-10-17T11:20:01.316Z,30.78
2016-10-17T11:21:11.880Z,31.02
2016-10-17T11:22:22.335Z,31.12
2016-10-17T11:23:32.910Z,31.28
2016-10-17T11:24:43.467Z,31.46
2016-10-17T11:25:54.056Z,31.75
2016-10-17T11:27:04.637Z,31.38
2016-10-17T11:28:15.231Z,31.7
2016-10-17T11:29:25.927Z,32
2016-10-17T11:30:36.556Z,32.22
2016-10-17T11:31:47.142Z,32.58
2016-10-17T11:32:57.731Z,33.13
2016-10-17T11:34:08.330Z,33.89
2016-10-17T11:35:19.028Z,34.22
2016-10-17T11:36:29.614Z,33.85
2016-10-17T11:37:40.718Z,33.39
2016-10-17T11:38:51.311Z,33.31
2016-10-17T11:40:01.904Z,33.29
2016-10-17T11:41:12.523Z,33.06
2016-10-17T11:42:23.112Z,32.86
2016-10-17T11:43:33.701Z,33.43
2016-10-17T11:44:44.296Z,33.43
2016-10-17T11:45:54.902Z,33.31
2016-10-17T11:47:06.075Z,33.2
2016-10-17T11:48:16.663Z,32.64
2016-10-17T11:49:27.284Z,32.62
2016-10-17T11:50:37.873Z,32.66
2016-10-17T11:51:48.455Z,33.3
2016-10-17T11:52:59.161Z,33.65
2016-10-17T11:54:09.806Z,34.46
2016-10-17T11:55:20.401Z,34.58
2016-10-17T11:56:30.991Z,34.57
2016-10-17T11:57:41.580Z,34.83
2016-10-17T11:58:52.130Z,35.02
2016-10-17T12:00:02.672Z,34.99
2016-10-17T12:01:13.262Z,35.23
2016-10-17T12:02:23.827Z,35.66
2016-10-17T12:03:34.400Z,35.48
2016-10-17T12:04:45.097Z,35.51
2016-10-17T12:05:55.660Z,35.26
2016-10-17T12:07:06.187Z,35.84
2016-10-17T12:08:16.733Z,36.24
2016-10-17T12:09:27.350Z,36.92
2016-10-17T12:10:37.982Z,37.28
2016-10-17T12:11:48.524Z,37.42
2016-10-17T12:12:59.109Z,37.33
2016-10-17T12:14:09.693Z,37.51
2016-10-17T12:15:20.273Z,37.35
2016-10-17T12:16:30.953Z,37.16
2016-10-17T12:17:41.511Z,36.97
2016-10-17T12:18:52.078Z,36.39
2016-10-17T12:20:02.667Z,36.65
2016-10-17T12:21:13.259Z,36.35
2016-10-17T12:22:23.904Z,36.6
2016-10-17T12:23:34.478Z,36.73
2016-10-17T12:24:45.043Z,36.65
2016-10-17T12:25:55.595Z,36.24
2016-10-17T12:27:06.198Z,35.66
2016-10-17T12:28:16.841Z,35.91
2016-10-17T12:29:27.341Z,36.19
2016-10-17T12:30:37.897Z,36.23
2016-10-17T12:31:48.462Z,35.67
2016-10-17T12:32:59.068Z,35.57
2016-10-17T12:34:09.837Z,36
2016-10-17T12:35:20.431Z,36.36
2016-10-17T12:36:31.516Z,36.61
2016-10-17T12:37:42.143Z,36.79
2016-10-17T12:38:52.740Z,37.26
2016-10-17T12:40:03.338Z,36.42
2016-10-17T12:41:13.939Z,36.98
2016-10-17T12:42:24.537Z,37.31
2016-10-17T12:43:35.130Z,37.29
2016-10-17T12:44:45.731Z,36.82
2016-10-17T12:45:56.432Z,36.85
2016-10-17T12:47:07.022Z,36.08
2016-10-17T12:48:17.605Z,35.81
2016-10-17T12:49:28.198Z,35.42
2016-10-17T12:50:38.785Z,35.26
2016-10-17T12:51:49.476Z,34.88
2016-10-17T12:53:00.548Z,35.18
2016-10-17T12:54:11.146Z,35.21
2016-10-17T12:55:21.732Z,35.3
2016-10-17T12:56:32.327Z,35.18
2016-10-17T12:57:43.045Z,35.28
2016-10-17T12:58:54.224Z,35.54
2016-10-17T13:00:04.811Z,36.01
2016-10-17T13:01:15.399Z,36.77
2016-10-17T13:02:26.017Z,37.17
2016-10-17T13:03:36.711Z,37.1
2016-10-17T13:04:47.302Z,37.32
2016-10-17T13:05:57.876Z,37.04
2016-10-17T13:07:08.378Z,37.32
2016-10-17T13:08:18.895Z,37.32
2016-10-17T13:09:29.519Z,36.7
2016-10-17T13:10:40.025Z,35.7
2016-10-17T13:11:50.537Z,35.39
2016-10-17T13:13:01.023Z,35.67
2016-10-17T13:14:43.386Z,36.06
2016-10-17T13:15:53.921Z,36.42
2016-10-17T13:17:04.419Z,36.82
2016-10-17T13:18:14.968Z,36.79
2016-10-17T13:19:25.527Z,36.63
2016-10-17T13:20:36.135Z,36.2
2016-10-17T13:21:46.682Z,36.11
2016-10-17T13:22:57.200Z,36.27
2016-10-17T13:24:07.736Z,36.31
2016-10-17T13:25:18.250Z,36.82
2016-10-17T13:26:28.931Z,37.29
2016-10-17T13:27:39.917Z,36.77
2016-10-17T13:28:50.389Z,36.54
2016-10-17T13:30:00.917Z,36.14
2016-10-17T13:31:11.433Z,36.11
2016-10-17T13:32:22.033Z,35.91
2016-10-17T13:33:32.576Z,35.91
2016-10-17T13:34:43.070Z,36.27
2016-10-17T13:35:53.623Z,36.65
2016-10-17T13:37:04.147Z,36.38
2016-10-17T13:38:14.753Z,36.07
2016-10-17T13:39:25.254Z,36.58
2016-10-17T13:52:47.045Z,36.42
2016-10-17T13:53:57.577Z,36.2
2016-10-17T13:55:08.096Z,36.07
2016-10-17T13:56:18.616Z,36.14
2016-10-17T13:57:29.124Z,36.07
2016-10-17T13:58:39.754Z,36.38
2016-10-17T13:59:50.254Z,36.76
2016-10-17T14:01:00.756Z,36.95
2016-10-17T14:02:11.306Z,37.14
2016-10-17T14:03:21.868Z,37.36
2016-10-17T14:04:32.368Z,37.76
2016-10-17T14:05:42.908Z,37.48
2016-10-17T14:06:53.405Z,37.48
2016-10-17T14:08:03.940Z,37.67
2016-10-17T14:09:14.441Z,37.64
2016-10-17T14:10:25.541Z,37.46
2016-10-17T14:11:36.096Z,37.58
2016-10-17T14:12:46.661Z,37.5
2016-10-17T14:13:57.173Z,36.58
2016-10-17T14:15:07.759Z,36.58
2016-10-17T14:16:18.287Z,36.63
2016-10-17T14:17:28.801Z,36.63
2016-10-17T14:18:39.315Z,36.39
2016-10-17T14:19:49.825Z,36.03
2016-10-17T14:21:00.391Z,36.2
2016-10-17T14:22:11.034Z,36.43
2016-10-17T14:23:21.602Z,36.8
2016-10-17T14:24:32.120Z,37.02
2016-10-17T14:25:42.612Z,36.23
2016-10-17T14:26:53.100Z,36.08
2016-10-17T14:28:04.131Z,36.26
2016-10-17T14:29:14.632Z,36.14
2016-10-17T14:30:25.142Z,36.07
2016-10-17T14:31:35.648Z,36.38
2016-10-17T14:32:46.141Z,36.2
2016-10-17T14:33:56.750Z,36.39
2016-10-17T14:35:07.256Z,36.31
2016-10-17T14:36:17.771Z,36.45
2016-10-17T14:37:28.319Z,36.97
2016-10-17T14:38:38.811Z,37.58
2016-10-17T14:39:49.309Z,37.5
2016-10-17T14:40:59.855Z,37.46
2016-10-17T14:42:10.377Z,37.66
2016-10-17T14:43:21.362Z,37.38
2016-10-17T14:44:31.919Z,37.5
2016-10-17T14:45:42.583Z,37.59
2016-10-17T14:46:53.117Z,37.71
2016-10-17T14:48:03.631Z,38.04
2016-10-17T14:49:14.191Z,37.76
2016-10-17T14:50:24.736Z,37.36
2016-10-17T14:51:35.449Z,37.56
2016-10-17T14:52:45.977Z,37.56
2016-10-17T14:53:56.498Z,37.81
2016-10-17T14:55:07.044Z,38.2
2016-10-17T14:56:17.556Z,38.3
2016-10-17T14:57:28.217Z,38.29
2016-10-17T14:58:38.779Z,37.74
2016-10-17T14:59:49.300Z,37.96
2016-10-17T15:00:59.848Z,38.01
2016-10-17T15:02:10.805Z,38.26
2016-10-17T15:03:21.309Z,37.98
2016-10-17T15:04:32.270Z,37.43
2016-10-17T15:05:42.762Z,37.5
2016-10-17T15:06:53.245Z,37.5
2016-10-17T15:08:03.790Z,37.28
2016-10-17T15:09:14.404Z,37.62
2016-10-17T15:10:24.933Z,37.81
2016-10-17T15:11:35.499Z,37.56
2016-10-17T15:12:46.017Z,36.87
2016-10-17T15:13:56.563Z,36.86
2016-10-17T15:15:07.590Z,37.09
2016-10-17T15:16:18.099Z,37.13
2016-10-17T15:17:28.609Z,37.33
2016-10-17T15:18:39.194Z,37.31
2016-10-17T15:19:50.186Z,37.48
2016-10-17T15:21:01.147Z,37.5
2016-10-17T15:22:11.635Z,37.14
2016-10-17T15:23:22.105Z,36.72
2016-10-17T15:24:32.579Z,36.97
2016-10-17T15:25:43.067Z,37.14
2016-10-17T15:26:53.639Z,36.83
2016-10-17T15:28:04.121Z,36.98